Time;durP1;ratioP1;P1;durP2;ratioP2;P2;SDS_P1;SDS_P2;PMS_P1;PMS_P2;Temp;Humidity;BMP_temperature;BMP_pressure;BME280_temperature;BME280_humidity;BME280_pressure;Samples;Min_cycle;Max_cycle;Signal;HPM_P1;HPM_P2
2023/12/25 00:01:20;;;;;;;1999.90;999.90;;;11.40;99.90;;;;;;5062840;28;20040;-86
2023/12/25 00:03:46;;;;;;;1999.90;999.90;;;11.40;99.90;;;;;;5062812;28;20050;-85
2023/12/25 00:06:12;;;;;;;1999.90;999.90;;;12.20;99.90;;;;;;5063676;28;20040;-85
2023/12/25 00:08:38;;;;;;;1999.90;999.90;;;11.40;99.90;;;;;;5079570;28;20054;-86
2023/12/25 00:11:03;;;;;;;1999.90;999.90;;;11.40;99.90;;;;;;5080105;28;20037;-85
2023/12/25 00:13:29;;;;;;;1999.90;999.90;;;11.40;99.90;;;;;;5059748;28;20033;-86
2023/12/25 00:15:55;;;;;;;1999.90;999.90;;;11.80;99.90;;;;;;5062709;28;20036;-86
2023/12/25 00:18:20;;;;;;;1999.90;999.90;;;11.40;99.90;;;;;;5062439;28;20089;-85
2023/12/25 00:20:46;;;;;;;1999.90;999.90;;;11.50;99.90;;;;;;5062965;28;20222;-86
2023/12/25 00:23:11;;;;;;;1999.90;999.90;;;11.40;99.90;;;;;;5063497;28;20097;-85
2023/12/25 00:25:37;;;;;;;1999.90;999.90;;;11.90;99.90;;;;;;5063409;28;20499;-85
2023/12/25 00:28:03;;;;;;;1999.90;999.90;;;11.40;99.90;;;;;;5079361;28;20494;-86
2023/12/25 00:30:29;;;;;;;1999.90;999.90;;;11.50;99.90;;;;;;5063394;28;20047;-86
2023/12/25 00:32:54;;;;;;;1999.90;999.90;;;11.40;99.90;;;;;;5063437;28;20044;-85
2023/12/25 00:35:20;;;;;;;1999.90;999.90;;;11.70;99.90;;;;;;5046078;28;20036;-86
2023/12/25 00:37:45;;;;;;;1999.90;999.90;;;11.00;99.90;;;;;;5062358;28;20104;-85
2023/12/25 00:40:11;;;;;;;1999.90;999.90;;;11.80;99.90;;;;;;5062412;28;20199;-86
2023/12/25 00:42:37;;;;;;;1999.90;999.90;;;11.40;99.90;;;;;;5062974;28;20044;-86
2023/12/25 00:45:03;;;;;;;1999.90;999.90;;;11.60;99.90;;;;;;5079088;28;20055;-86
2023/12/25 00:47:28;;;;;;;1999.90;999.90;;;11.40;99.90;;;;;;5079847;28;20047;-85
2023/12/25 00:49:54;;;;;;;1999.90;999.90;;;11.40;99.90;;;;;;5062913;28;20040;-86
2023/12/25 00:52:19;;;;;;;1999.90;999.90;;;11.50;99.90;;;;;;5062879;28;20033;-86
2023/12/25 00:54:45;;;;;;;1999.90;999.90;;;11.40;99.90;;;;;;5065050;28;20044;-86
2023/12/25 00:57:12;;;;;;;1999.90;999.90;;;11.40;99.90;;;;;;5073640;28;20028;-86
2023/12/25 00:59:38;;;;;;;1999.90;999.90;;;11.80;99.90;;;;;;5080487;28;20040;-86
2023/12/25 01:02:04;;;;;;;1999.90;999.90;;;11.40;99.90;;;;;;5065286;28;20119;-86
2023/12/25 01:04:29;;;;;;;1999.90;999.90;;;11.30;99.90;;;;;;5060840;28;20047;-86
2023/12/25 01:06:55;;;;;;;1999.90;999.90;;;11.20;99.90;;;;;;5063048;28;20109;-86
2023/12/25 01:09:21;;;;;;;1999.90;999.90;;;11.30;99.90;;;;;;5079529;28;20037;-86
2023/12/25 01:11:46;;;;;;;1999.90;999.90;;;11.60;99.90;;;;;;5061092;28;20047;-86
2023/12/25 01:14:12;;;;;;;1999.90;999.90;;;11.10;99.90;;;;;;5061659;28;20058;-86
2023/12/25 01:16:38;;;;;;;1999.90;999.90;;;11.10;99.90;;;;;;5062104;28;20111;-86
2023/12/25 01:19:04;;;;;;;1999.90;999.90;;;11.00;99.90;;;;;;5062214;28;20508;-86
2023/12/25 01:21:32;;;;;;;1999.90;999.90;;;11.00;99.90;;;;;;5061127;28;20124;-86
2023/12/25 01:23:58;;;;;;;1999.90;999.90;;;11.10;99.90;;;;;;5062817;28;20033;-86
2023/12/25 01:26:23;;;;;;;1999.90;999.90;;;11.10;99.90;;;;;;5078093;28;20554;-86
2023/12/25 01:28:49;;;;;;;1999.90;999.90;;;11.00;99.90;;;;;;5078814;28;20080;-86
2023/12/25 01:31:14;;;;;;;1999.90;999.90;;;12.00;99.90;;;;;;5060358;28;20047;-86
2023/12/25 01:33:40;;;;;;;1999.90;999.90;;;11.00;99.90;;;;;;5061824;28;20527;-86
2023/12/25 01:36:07;;;;;;;1999.90;999.90;;;11.00;99.90;;;;;;5060611;28;20043;-86
2023/12/25 01:38:33;;;;;;;1999.90;999.90;;;11.50;99.90;;;;;;5061108;28;20033;-86
2023/12/25 01:40:58;;;;;;;1999.90;999.90;;;11.40;99.90;;;;;;5061795;28;20416;-86
2023/12/25 01:43:24;;;;;;;1999.90;999.90;;;10.90;99.90;;;;;;5061691;28;20044;-87
2023/12/25 01:45:49;;;;;;;1999.90;999.90;;;10.90;99.90;;;;;;5061199;28;20102;-86
2023/12/25 01:48:15;;;;;;;1999.90;999.90;;;10.90;99.90;;;;;;5077463;28;20036;-86
2023/12/25 01:50:41;;;;;;;1999.90;999.90;;;11.20;99.90;;;;;;5061616;28;20036;-86
2023/12/25 01:53:07;;;;;;;1999.90;999.90;;;10.80;99.90;;;;;;5062435;28;20033;-86
2023/12/25 01:55:32;;;;;;;1999.90;999.90;;;10.70;99.90;;;;;;5060281;28;20039;-85
2023/12/25 01:57:58;;;;;;;1999.90;999.90;;;10.70;99.90;;;;;;5061909;28;20055;-85
2023/12/25 02:00:24;;;;;;;1999.90;999.90;;;10.80;99.90;;;;;;5061695;28;20036;-86
2023/12/25 02:02:50;;;;;;;1999.90;999.90;;;11.50;99.90;;;;;;5061574;28;20037;-86
2023/12/25 02:05:17;;;;;;;1999.90;999.90;;;10.80;99.90;;;;;;5061722;28;20040;-86
2023/12/25 02:07:44;;;;;;;1999.90;999.90;;;11.30;99.90;;;;;;5060583;28;20064;-86
2023/12/25 02:10:10;;;;;;;1999.90;999.90;;;11.50;99.90;;;;;;5061752;28;20041;-85
2023/12/25 02:12:36;;;;;;;1999.90;999.90;;;11.60;99.90;;;;;;5059683;28;20039;-86
2023/12/25 02:15:05;;;;;;;1999.90;999.90;;;10.70;99.90;;;;;;5061155;28;20041;-86
2023/12/25 02:17:32;;;;;;;1999.90;999.90;;;10.70;99.90;;;;;;5061170;28;20070;-86
2023/12/25 02:19:58;;;;;;;1999.90;999.90;;;10.90;99.90;;;;;;5061355;28;20033;-86
2023/12/25 02:22:24;;;;;;;1999.90;999.90;;;10.60;99.90;;;;;;5060245;28;20037;-86
2023/12/25 02:25:01;;;;;;;1999.90;999.90;;;10.60;99.90;;;;;;5061879;28;20077;-86
2023/12/25 02:27:27;;;;;;;1999.90;999.90;;;10.60;99.90;;;;;;5074323;28;20057;-86
2023/12/25 02:29:53;;;;;;;1999.90;999.90;;;10.80;99.90;;;;;;5061816;28;20044;-86
2023/12/25 02:32:18;;;;;;;1999.90;999.90;;;10.50;99.90;;;;;;5076483;28;20449;-87
2023/12/25 02:34:47;;;;;;;1999.90;999.90;;;10.50;99.90;;;;;;5061352;28;20032;-86
2023/12/25 02:37:15;;;;;;;1999.90;999.90;;;10.50;99.90;;;;;;5061451;28;20041;-86
2023/12/25 02:39:41;;;;;;;1999.90;999.90;;;10.50;99.90;;;;;;5061759;28;20105;-86
2023/12/25 02:42:06;;;;;;;1999.90;999.90;;;11.10;99.90;;;;;;5060616;28;20525;-86
2023/12/25 02:44:32;;;;;;;1999.90;999.90;;;10.50;99.90;;;;;;5060722;28;20040;-86
2023/12/25 02:46:58;;;;;;;1999.90;999.90;;;10.60;99.90;;;;;;5061369;28;20040;-85
2023/12/25 02:49:23;;;;;;;1999.90;999.90;;;10.80;99.90;;;;;;5064706;28;20081;-86
2023/12/25 02:51:49;;;;;;;1999.90;999.90;;;10.60;99.90;;;;;;5062676;28;20103;-86
2023/12/25 02:54:14;;;;;;;1999.90;999.90;;;10.70;99.90;;;;;;5070373;28;20094;-86
2023/12/25 02:56:40;;;;;;;1999.90;999.90;;;11.60;99.90;;;;;;5065064;28;20400;-86
2023/12/25 02:59:06;;;;;;;1999.90;999.90;;;10.70;99.90;;;;;;5064280;28;20090;-86
2023/12/25 03:01:32;;;;;;;1999.90;999.90;;;11.20;99.90;;;;;;5063952;28;20040;-85
2023/12/25 03:03:57;;;;;;;1999.90;999.90;;;11.00;99.90;;;;;;5064979;28;20051;-86
2023/12/25 03:06:23;;;;;;;1999.90;999.90;;;11.00;99.90;;;;;;5064389;28;20409;-86
2023/12/25 03:08:52;;;;;;;1999.90;999.90;;;10.80;99.90;;;;;;5081069;28;20478;-86
2023/12/25 03:11:17;;;;;;;1999.90;999.90;;;10.80;99.90;;;;;;5064251;28;20064;-86
2023/12/25 03:13:43;;;;;;;1999.90;999.90;;;10.90;99.90;;;;;;5064407;28;20033;-85
2023/12/25 03:16:09;;;;;;;1999.90;999.90;;;10.80;99.90;;;;;;5064613;28;20082;-87
2023/12/25 03:18:34;;;;;;;1999.90;999.90;;;10.90;99.90;;;;;;5064854;28;20036;-86
2023/12/25 03:21:00;;;;;;;1999.90;999.90;;;10.80;99.90;;;;;;5081071;28;20063;-86
2023/12/25 03:23:26;;;;;;;1999.90;999.90;;;11.50;99.90;;;;;;5065638;28;20037;-86
2023/12/25 03:25:52;;;;;;;1999.90;999.90;;;11.30;99.90;;;;;;5064016;28;20048;-87
2023/12/25 03:28:17;;;;;;;1999.90;999.90;;;11.60;99.90;;;;;;5063902;28;20032;-86
2023/12/25 03:30:43;;;;;;;1999.90;999.90;;;11.80;99.90;;;;;;5064491;28;20125;-86
2023/12/25 03:33:09;;;;;;;1999.90;999.90;;;11.60;99.90;;;;;;5064260;28;20039;-86
2023/12/25 03:35:35;;;;;;;1999.90;999.90;;;10.90;99.90;;;;;;5063267;28;20090;-86
2023/12/25 03:38:01;;;;;;;1999.90;999.90;;;10.70;99.90;;;;;;5064017;28;20032;-86
2023/12/25 03:40:26;;;;;;;1999.90;999.90;;;11.30;99.90;;;;;;5064533;28;20044;-86
2023/12/25 03:42:55;;;;;;;1999.90;999.90;;;10.90;99.90;;;;;;5064714;28;20044;-86
2023/12/25 03:45:20;;;;;;;1999.90;999.90;;;11.20;99.90;;;;;;5063246;28;20047;-86
2023/12/25 03:47:47;;;;;;;1999.90;999.90;;;11.00;99.90;;;;;;5064006;28;20040;-86
2023/12/25 03:50:12;;;;;;;1999.90;999.90;;;10.50;99.90;;;;;;5079832;28;20043;-86
2023/12/25 03:52:38;;;;;;;1999.90;999.90;;;10.50;99.90;;;;;;5062271;28;20036;-86
2023/12/25 03:55:04;;;;;;;1999.90;999.90;;;10.60;99.90;;;;;;5063555;28;20033;-87
2023/12/25 03:57:29;;;;;;;1999.90;999.90;;;10.50;99.90;;;;;;5063752;28;20127;-86
2023/12/25 03:59:55;;;;;;;1999.90;999.90;;;10.60;99.90;;;;;;5063795;28;20047;-86
2023/12/25 04:02:21;;;;;;;1999.90;999.90;;;10.50;99.90;;;;;;5062612;28;20040;-86
2023/12/25 04:04:47;;;;;;;1999.90;999.90;;;10.40;99.90;;;;;;5063491;28;20040;-86
2023/12/25 04:07:14;;;;;;;1999.90;999.90;;;10.50;99.90;;;;;;5064224;28;20090;-86
2023/12/25 04:09:41;;;;;;;1999.90;999.90;;;10.50;99.90;;;;;;5063108;28;20450;-86
2023/12/25 04:12:06;;;;;;;1999.90;999.90;;;10.80;99.90;;;;;;5063067;28;20041;-87
2023/12/25 04:14:36;;;;;;;1999.90;999.90;;;10.50;99.90;;;;;;5064452;28;20041;-86
2023/12/25 04:17:02;;;;;;;1999.90;999.90;;;10.60;99.90;;;;;;5061007;28;20432;-86
2023/12/25 04:19:27;;;;;;;1999.90;999.90;;;10.50;99.90;;;;;;5062749;28;20033;-86
2023/12/25 04:21:53;;;;;;;1999.90;999.90;;;10.60;99.90;;;;;;5062791;28;20033;-87
2023/12/25 04:24:18;;;;;;;1999.90;999.90;;;11.20;99.90;;;;;;5066187;28;20044;-86
2023/12/25 04:26:44;;;;;;;1999.90;999.90;;;10.70;99.90;;;;;;5062365;28;20044;-86
2023/12/25 04:29:10;;;;;;;1999.90;999.90;;;10.70;99.90;;;;;;5062774;28;20563;-86
2023/12/25 04:31:36;;;;;;;1999.90;999.90;;;10.60;99.90;;;;;;5062900;28;20559;-86
2023/12/25 04:34:01;;;;;;;1999.90;999.90;;;11.10;99.90;;;;;;5078792;28;20040;-86
2023/12/25 04:36:27;;;;;;;1999.90;999.90;;;10.70;99.90;;;;;;5060967;28;20535;-87
2023/12/25 04:38:52;;;;;;;1999.90;999.90;;;10.60;99.90;;;;;;5062365;28;20060;-86
2023/12/25 04:41:22;;;;;;;1999.90;999.90;;;10.80;99.90;;;;;;5062414;28;20055;-86
2023/12/25 04:43:48;;;;;;;1999.90;999.90;;;10.60;99.90;;;;;;5061882;28;20040;-87
2023/12/25 04:46:13;;;;;;;1999.90;999.90;;;10.60;99.90;;;;;;5078013;28;20066;-86
2023/12/25 04:48:39;;;;;;;1999.90;999.90;;;10.60;99.90;;;;;;5062717;28;20036;-86
2023/12/25 04:51:04;;;;;;;1999.90;999.90;;;11.00;99.90;;;;;;5061722;28;20036;-87
2023/12/25 04:53:31;;;;;;;1999.90;999.90;;;10.60;99.90;;;;;;5079252;28;20055;-86
2023/12/25 04:55:57;;;;;;;1999.90;999.90;;;10.60;99.90;;;;;;5063263;28;20138;-86
2023/12/25 04:58:23;;;;;;;1999.90;999.90;;;10.80;99.90;;;;;;5062039;28;20155;-86
2023/12/25 05:00:49;;;;;;;1999.90;999.90;;;10.80;99.90;;;;;;5062259;28;20043;-87
2023/12/25 05:03:14;;;;;;;1999.90;999.90;;;10.50;99.90;;;;;;5062610;28;20100;-87
2023/12/25 05:05:40;;;;;;;1999.90;999.90;;;10.90;99.90;;;;;;5063301;28;20043;-87
2023/12/25 05:08:06;;;;;;;1999.90;999.90;;;10.60;99.90;;;;;;5062154;28;20036;-87
2023/12/25 05:10:31;;;;;;;1999.90;999.90;;;10.60;99.90;;;;;;5061199;28;20044;-86
2023/12/25 05:12:57;;;;;;;1999.90;999.90;;;10.70;99.90;;;;;;5062449;28;20037;-87
2023/12/25 05:15:23;;;;;;;1999.90;999.90;;;10.50;99.90;;;;;;5062149;28;20493;-87
2023/12/25 05:17:48;;;;;;;1999.90;999.90;;;11.20;99.90;;;;;;5062307;28;20036;-87
2023/12/25 05:20:14;;;;;;;1999.90;999.90;;;10.80;99.90;;;;;;5060866;28;20044;-86
2023/12/25 05:22:40;;;;;;;1999.90;999.90;;;10.30;99.90;;;;;;5061122;28;20036;-86
2023/12/25 05:25:06;;;;;;;1999.90;999.90;;;10.30;99.90;;;;;;5061616;28;21173;-86
2023/12/25 05:27:32;;;;;;;1999.90;999.90;;;10.30;99.90;;;;;;5061167;28;20386;-86
2023/12/25 05:29:58;;;;;;;1999.90;999.90;;;10.70;99.90;;;;;;5060906;28;20035;-86
2023/12/25 05:32:24;;;;;;;1999.90;999.90;;;10.20;99.90;;;;;;5061682;28;20409;-86
2023/12/25 05:34:50;;;;;;;1999.90;999.90;;;10.90;99.90;;;;;;5061822;28;20044;-86
2023/12/25 05:37:15;;;;;;;1999.90;999.90;;;10.10;99.90;;;;;;5061482;28;20037;-87
2023/12/25 05:39:41;;;;;;;1999.90;999.90;;;11.00;99.90;;;;;;5074303;28;20040;-86
2023/12/25 05:42:07;;;;;;;1999.90;999.90;;;10.10;99.90;;;;;;5077357;28;20036;-87
2023/12/25 05:44:33;;;;;;;1999.90;999.90;;;10.90;99.90;;;;;;5060851;28;20511;-87
2023/12/25 05:46:59;;;;;;;1999.90;999.90;;;10.10;99.90;;;;;;5061738;28;20041;-86
2023/12/25 05:49:24;;;;;;;1999.90;999.90;;;10.10;99.90;;;;;;5061832;28;20133;-87
2023/12/25 05:51:50;;;;;;;1999.90;999.90;;;10.30;99.90;;;;;;5062613;28;20041;-87
2023/12/25 05:54:15;;;;;;;1999.90;999.90;;;10.90;99.90;;;;;;5062353;28;20521;-86
2023/12/25 05:56:41;;;;;;;1999.90;999.90;;;10.10;99.90;;;;;;5061436;28;20094;-86
2023/12/25 05:59:07;;;;;;;1999.90;999.90;;;10.20;99.90;;;;;;5062766;28;20064;-87
2023/12/25 06:01:32;;;;;;;1999.90;999.90;;;9.70;99.90;;;;;;5061621;28;20036;-86
2023/12/25 06:03:58;;;;;;;1999.90;999.90;;;10.10;99.90;;;;;;5062337;28;20097;-86
2023/12/25 06:06:24;;;;;;;1999.90;999.90;;;10.80;99.90;;;;;;5062032;28;20041;-86
2023/12/25 06:08:49;;;;;;;1999.90;999.90;;;10.40;99.90;;;;;;5077356;28;20047;-86
2023/12/25 06:11:15;;;;;;;1999.90;999.90;;;9.90;99.90;;;;;;5060968;28;20098;-86
2023/12/25 06:13:41;;;;;;;1999.90;999.90;;;9.90;99.90;;;;;;5061516;28;20615;-86
2023/12/25 06:16:06;;;;;;;1999.90;999.90;;;9.90;99.90;;;;;;5061077;28;20120;-87
2023/12/25 06:18:32;;;;;;;1999.90;999.90;;;10.50;99.90;;;;;;5061825;28;20035;-87
2023/12/25 06:20:57;;;;;;;1999.90;999.90;;;9.90;99.90;;;;;;5063032;28;20178;-87
2023/12/25 06:23:26;;;;;;;1999.90;999.90;;;9.80;99.90;;;;;;5084461;28;20127;-87
2023/12/25 06:25:55;;;;;;;1999.90;999.90;;;10.40;99.90;;;;;;5081990;28;20052;-86
2023/12/25 06:28:23;;;;;;;1999.90;999.90;;;10.20;99.90;;;;;;5064734;28;20036;-86
2023/12/25 06:30:51;;;;;;;1999.90;999.90;;;10.00;99.90;;;;;;5064476;28;20083;-86
2023/12/25 06:33:18;;;;;;;1999.90;999.90;;;10.40;99.90;;;;;;5064421;28;20047;-86
2023/12/25 06:35:43;;;;;;;1999.90;999.90;;;9.90;99.90;;;;;;5081491;28;20047;-86
2023/12/25 06:38:11;;;;;;;1999.90;999.90;;;10.80;99.90;;;;;;5080136;28;20061;-87
2023/12/25 06:40:39;;;;;;;1999.90;999.90;;;9.80;99.90;;;;;;5073177;28;20626;-87
2023/12/25 06:43:05;;;;;;;1999.90;999.90;;;10.20;99.90;;;;;;5072597;28;20040;-87
2023/12/25 06:45:30;;;;;;;1999.90;999.90;;;10.60;99.90;;;;;;5089337;28;20040;-87
2023/12/25 06:47:56;;;;;;;1999.90;999.90;;;9.80;99.90;;;;;;5072361;28;20048;-87
2023/12/25 06:50:22;;;;;;;1999.90;999.90;;;10.00;99.90;;;;;;5071869;28;20043;-86
2023/12/25 06:52:48;;;;;;;1999.90;999.90;;;10.60;99.90;;;;;;5071521;28;20068;-86
2023/12/25 06:55:17;;;;;;;1999.90;999.90;;;9.80;99.90;;;;;;5072729;28;20032;-86
2023/12/25 06:57:43;;;;;;;1999.90;999.90;;;9.80;99.90;;;;;;5072985;28;20050;-87
2023/12/25 07:00:11;;;;;;;1999.90;999.90;;;9.80;99.90;;;;;;5082181;28;20048;-87
2023/12/25 07:02:37;;;;;;;1999.90;999.90;;;9.80;99.90;;;;;;5072236;28;20036;-87
2023/12/25 07:05:04;;;;;;;1999.90;999.90;;;9.80;99.90;;;;;;5071409;28;20050;-87
2023/12/25 07:07:30;;;;;;;1999.90;999.90;;;9.70;99.90;;;;;;5070251;28;20025;-86
2023/12/25 07:09:56;;;;;;;1999.90;999.90;;;10.10;99.90;;;;;;5071426;28;20032;-86
2023/12/25 07:12:23;;;;;;;1999.90;999.90;;;9.60;99.90;;;;;;5070190;28;20063;-86
2023/12/25 07:14:50;;;;;;;1999.90;999.90;;;9.90;99.90;;;;;;5071280;28;20064;-86
2023/12/25 07:17:17;;;;;;;1999.90;999.90;;;10.00;99.90;;;;;;5071206;28;20033;-86
2023/12/25 07:19:43;;;;;;;1999.90;999.90;;;9.50;99.90;;;;;;5070364;28;20038;-88
2023/12/25 07:22:10;;;;;;;1999.90;999.90;;;10.10;99.90;;;;;;5070337;28;20072;-85
2023/12/25 07:24:35;;;;;;;1999.90;999.90;;;9.50;99.90;;;;;;5069829;28;20032;-87
2023/12/25 07:27:01;;;;;;;1999.90;999.90;;;10.30;99.90;;;;;;5086967;28;20110;-86
2023/12/25 07:29:27;;;;;;;1999.90;999.90;;;10.10;99.90;;;;;;5087620;28;20036;-85
2023/12/25 07:31:52;;;;;;;1999.90;999.90;;;10.20;99.90;;;;;;5070457;28;20205;-85
2023/12/25 07:34:19;;;;;;;1999.90;999.90;;;9.40;99.90;;;;;;5051458;28;20037;-85
2023/12/25 07:36:44;;;;;;;1999.90;999.90;;;9.90;99.90;;;;;;5069271;28;20067;-86
2023/12/25 07:39:12;;;;;;;1999.90;999.90;;;9.30;99.90;;;;;;5069029;28;20041;-85
2023/12/25 07:41:37;;;;;;;1999.90;999.90;;;9.30;99.90;;;;;;5069438;28;20052;-86
2023/12/25 07:44:04;;;;;;;1999.90;999.90;;;10.30;99.90;;;;;;5069572;28;20040;-85
2023/12/25 07:46:29;;;;;;;1999.90;999.90;;;9.30;99.90;;;;;;5069049;28;20040;-86
2023/12/25 07:48:55;;;;;;;1999.90;999.90;;;9.50;99.90;;;;;;5069809;28;20047;-87
2023/12/25 07:51:21;;;;;;;1999.90;999.90;;;9.90;99.90;;;;;;5070668;28;20063;-84
2023/12/25 07:53:46;;;;;;;1999.90;999.90;;;10.00;99.90;;;;;;5067499;28;20047;-87
2023/12/25 07:56:15;;;;;;;1999.90;999.90;;;9.40;99.90;;;;;;5082447;28;20095;-85
2023/12/25 07:58:41;;;;;;;1999.90;999.90;;;9.40;99.90;;;;;;5086048;28;20545;-85
2023/12/25 08:01:08;;;;;;;1999.90;999.90;;;9.70;99.90;;;;;;5070125;28;20110;-87
2023/12/25 08:03:33;;;;;;;1999.90;999.90;;;9.40;99.90;;;;;;5070131;28;20036;-85
2023/12/25 08:05:59;;;;;;;1999.90;999.90;;;9.40;99.90;;;;;;5065237;28;20047;-84
2023/12/25 08:08:25;;;;;;;1999.90;999.90;;;9.40;99.90;;;;;;5067403;28;20055;-84
2023/12/25 08:10:50;;;;;;;1999.90;999.90;;;9.80;99.90;;;;;;5069904;28;20096;-85
2023/12/25 08:13:19;;;;;;;1999.90;999.90;;;9.80;99.90;;;;;;5067213;28;20051;-84
2023/12/25 08:15:44;;;;;;;1999.90;999.90;;;9.50;99.90;;;;;;5086906;28;20056;-87
2023/12/25 08:18:10;;;;;;;1999.90;999.90;;;9.40;99.90;;;;;;5069714;28;20047;-85
2023/12/25 08:20:36;;;;;;;1999.90;999.90;;;10.60;99.90;;;;;;5068647;28;20222;-85
2023/12/25 08:23:03;;;;;;;1999.90;999.90;;;10.50;99.90;;;;;;5086209;28;20070;-86
2023/12/25 08:25:28;;;;;;;1999.90;999.90;;;9.40;99.90;;;;;;5069527;28;20037;-81
2023/12/25 08:27:54;;;;;;;1999.90;999.90;;;9.50;99.90;;;;;;5069557;28;20094;-84
2023/12/25 08:30:20;;;;;;;1999.90;999.90;;;10.20;99.90;;;;;;5069797;28;20036;-83
2023/12/25 08:32:46;;;;;;;1999.90;999.90;;;9.40;99.90;;;;;;5070273;28;20222;-84
2023/12/25 08:35:12;;;;;;;1999.90;999.90;;;9.40;99.90;;;;;;5070662;28;20033;-84
2023/12/25 08:37:39;;;;;;;1999.90;999.90;;;9.40;99.90;;;;;;5069160;28;20040;-84
2023/12/25 08:40:05;;;;;;;1999.90;999.90;;;9.40;99.90;;;;;;5069873;28;20488;-81
2023/12/25 08:42:31;;;;;;;1999.90;999.90;;;9.40;99.90;;;;;;5068179;28;20040;-81
2023/12/25 08:44:57;;;;;;;1999.90;999.90;;;9.40;99.90;;;;;;5067731;28;20409;-83
2023/12/25 08:47:24;;;;;;;1999.90;999.90;;;9.40;99.90;;;;;;5085524;28;20234;-82
2023/12/25 08:49:49;;;;;;;1999.90;999.90;;;9.70;99.90;;;;;;5069941;28;20779;-86
2023/12/25 08:52:17;;;;;;;1999.90;999.90;;;9.40;99.90;;;;;;5069190;28;20042;-83
2023/12/25 08:54:42;;;;;;;1999.90;999.90;;;9.70;99.90;;;;;;5068288;28;20036;-84
2023/12/25 08:57:08;;;;;;;1999.90;999.90;;;10.30;99.90;;;;;;5077475;28;20043;-82
2023/12/25 08:59:34;;;;;;;1999.90;999.90;;;10.30;99.90;;;;;;5082340;28;20074;-81
2023/12/25 09:01:59;;;;;;;1999.90;999.90;;;9.30;99.90;;;;;;5065004;28;20094;-84
2023/12/25 09:04:25;;;;;;;1999.90;999.90;;;9.40;99.90;;;;;;5084539;28;20060;-85
2023/12/25 09:06:50;;;;;;;1999.90;999.90;;;9.30;99.90;;;;;;5082551;28;20039;-84
2023/12/25 09:09:16;;;;;;;1999.90;999.90;;;10.10;99.90;;;;;;5065909;28;20063;-85
2023/12/25 09:11:42;;;;;;;1999.90;999.90;;;9.60;99.90;;;;;;5065303;28;20028;-84
2023/12/25 09:14:07;;;;;;;1999.90;999.90;;;9.80;99.90;;;;;;5063223;28;20045;-80
2023/12/25 09:16:35;;;;;;;1999.90;999.90;;;10.00;99.90;;;;;;5081548;28;20086;-84
2023/12/25 09:19:00;;;;;;;1999.90;999.90;;;9.60;99.90;;;;;;5083409;28;20047;-84
2023/12/25 09:21:26;;;;;;;1999.90;999.90;;;9.30;99.90;;;;;;5068509;28;20041;-83
2023/12/25 09:23:52;;;;;;;1999.90;999.90;;;9.30;99.90;;;;;;5066767;28;20037;-81
2023/12/25 09:26:19;;;;;;;1999.90;999.90;;;9.30;99.90;;;;;;5065912;28;20044;-84
2023/12/25 09:28:45;;;;;;;1999.90;999.90;;;9.30;99.90;;;;;;5065050;28;20056;-81
2023/12/25 09:31:11;;;;;;;1999.90;999.90;;;9.30;99.90;;;;;;5064516;28;20070;-81
2023/12/25 09:33:37;;;;;;;1999.90;999.90;;;9.70;99.90;;;;;;5074306;28;20100;-82
2023/12/25 09:36:03;;;;;;;1999.90;999.90;;;9.80;99.90;;;;;;5067246;28;20040;-82
2023/12/25 09:38:29;;;;;;;1999.90;999.90;;;9.30;99.90;;;;;;5055629;28;20032;-85
2023/12/25 09:40:55;;;;;;;1999.90;999.90;;;10.30;99.90;;;;;;5066704;28;20451;-83
2023/12/25 09:43:22;;;;;;;1999.90;999.90;;;9.40;99.90;;;;;;5084234;28;20054;-83
2023/12/25 09:45:49;;;;;;;1999.90;999.90;;;9.30;99.90;;;;;;5066366;28;20050;-82
2023/12/25 09:48:17;;;;;;;1999.90;999.90;;;9.50;99.90;;;;;;5080553;28;20603;-84
2023/12/25 09:50:44;;;;;;;1999.90;999.90;;;10.20;99.90;;;;;;5065319;28;20124;-81
2023/12/25 09:53:09;;;;;;;1999.90;999.90;;;9.70;99.90;;;;;;5082499;28;20040;-81
2023/12/25 09:55:35;;;;;;;1999.90;999.90;;;10.30;99.90;;;;;;5065822;28;20105;-84
2023/12/25 09:58:06;;;;;;;1999.90;999.90;;;9.30;99.90;;;;;;5064863;28;20063;-83
2023/12/25 10:00:32;;;;;;;1999.90;999.90;;;9.60;99.90;;;;;;5066787;28;20036;-83
2023/12/25 10:02:58;;;;;;;1999.90;999.90;;;9.70;99.90;;;;;;5065457;28;20119;-82
2023/12/25 10:05:24;;;;;;;1999.90;999.90;;;9.70;99.90;;;;;;5063897;28;20290;-83
2023/12/25 10:07:50;;;;;;;1999.90;999.90;;;9.30;99.90;;;;;;5064590;28;20102;-84
2023/12/25 10:10:15;;;;;;;1999.90;999.90;;;9.30;99.90;;;;;;5065743;28;20427;-79
2023/12/25 10:12:45;;;;;;;1999.90;999.90;;;9.30;99.90;;;;;;5083540;28;20067;-84
2023/12/25 10:15:14;;;;;;;1999.90;999.90;;;9.30;99.90;;;;;;5081732;28;20037;-83
2023/12/25 10:17:39;;;;;;;1999.90;999.90;;;9.30;99.90;;;;;;5081392;28;20052;-85
2023/12/25 10:20:08;;;;;;;1999.90;999.90;;;9.90;99.90;;;;;;5066426;28;20062;-85
2023/12/25 10:22:34;;;;;;;1999.90;999.90;;;9.30;99.90;;;;;;5066209;28;20043;-86
2023/12/25 10:25:11;;;;;;;1999.90;999.90;;;9.40;99.90;;;;;;5068656;28;20095;-87
2023/12/25 10:27:42;;;;;;;1999.90;999.90;;;9.40;99.90;;;;;;5063351;28;20076;-86
2023/12/25 10:30:17;;;;;;;1999.90;999.90;;;10.30;99.90;;;;;;5061228;28;20033;-82
2023/12/25 10:32:44;;;;;;;1999.90;999.90;;;9.50;99.90;;;;;;5078843;28;20411;-83
2023/12/25 10:35:11;;;;;;;1999.90;999.90;;;9.80;99.90;;;;;;5062195;28;20032;-85
2023/12/25 10:37:38;;;;;;;1999.90;999.90;;;9.50;99.90;;;;;;5067462;28;20033;-88
2023/12/25 10:40:21;;;;;;;1999.90;999.90;;;9.80;99.90;;;;;;5067004;28;20028;-86
2023/12/25 10:42:49;;;;;;;1999.90;999.90;;;9.60;99.90;;;;;;5059741;28;20111;-86
2023/12/25 10:45:21;;;;;;;1999.90;999.90;;;10.20;99.90;;;;;;5067495;28;20032;-86
2023/12/25 10:47:50;;;;;;;1999.90;999.90;;;9.60;99.90;;;;;;5067009;28;20075;-87
2023/12/25 10:50:18;;;;;;;1999.90;999.90;;;9.90;99.90;;;;;;5067330;28;20033;-86
2023/12/25 10:52:45;;;;;;;1999.90;999.90;;;9.60;99.90;;;;;;5068154;28;20493;-89
2023/12/25 10:55:11;;;;;;;1999.90;999.90;;;9.60;99.90;;;;;;5067919;28;20036;-85
2023/12/25 10:57:37;;;;;;;1999.90;999.90;;;9.70;99.90;;;;;;5067140;28;20557;-84
2023/12/25 11:00:04;;;;;;;1999.90;999.90;;;10.30;99.90;;;;;;5065693;28;20067;-87
2023/12/25 11:02:35;;;;;;;1999.90;999.90;;;9.70;99.90;;;;;;5066853;28;20549;-87
2023/12/25 11:05:01;;;;;;;1999.90;999.90;;;10.60;99.90;;;;;;5066455;28;20075;-86
2023/12/25 11:07:28;;;;;;;1999.90;999.90;;;9.80;99.90;;;;;;5067790;28;20036;-87
2023/12/25 11:09:54;;;;;;;1999.90;999.90;;;9.80;99.90;;;;;;5070350;28;20040;-86
2023/12/25 11:12:21;;;;;;;1999.90;999.90;;;10.80;99.90;;;;;;5067307;28;20098;-83
2023/12/25 11:14:47;;;;;;;1999.90;999.90;;;9.90;99.90;;;;;;5082817;28;20072;-82
2023/12/25 11:17:13;;;;;;;1999.90;999.90;;;9.80;99.90;;;;;;5083749;28;20241;-80
2023/12/25 11:19:38;;;;;;;1999.90;999.90;;;9.80;99.90;;;;;;5066451;28;20115;-85
2023/12/25 11:22:27;;;;;;;1999.90;999.90;;;10.50;99.90;;;;;;5063792;28;20058;-83
2023/12/25 11:24:52;;;;;;;1999.90;999.90;;;9.80;99.90;;;;;;5063010;28;20040;-82
2023/12/25 11:27:19;;;;;;;1999.90;999.90;;;10.30;99.90;;;;;;5064493;28;20110;-82
2023/12/25 11:29:49;;;;;;;1999.90;999.90;;;10.70;99.90;;;;;;5064668;28;20051;-82
2023/12/25 11:32:17;;;;;;;1999.90;999.90;;;9.80;99.90;;;;;;5078030;28;20047;-82
2023/12/25 11:34:48;;;;;;;1999.90;999.90;;;10.60;99.90;;;;;;5062239;28;20038;-80
2023/12/25 11:37:23;;;;;;;1999.90;999.90;;;9.80;99.90;;;;;;5062645;28;20036;-82
2023/12/25 11:40:08;;;;;;;1999.90;999.90;;;9.80;99.90;;;;;;5062750;28;20049;-81
2023/12/25 11:42:38;;;;;;;1999.90;999.90;;;9.80;99.90;;;;;;5080374;28;20041;-82
2023/12/25 11:45:08;;;;;;;1999.90;999.90;;;9.90;99.90;;;;;;5062657;28;20067;-83
2023/12/25 11:47:44;;;;;;;1999.90;999.90;;;9.80;99.90;;;;;;5063883;28;20484;-82
2023/12/25 11:50:13;;;;;;;1999.90;999.90;;;9.80;99.90;;;;;;5080473;28;20041;-82
2023/12/25 11:52:53;;;;;;;1999.90;999.90;;;9.90;99.90;;;;;;5080587;28;20052;-82
2023/12/25 11:55:20;;;;;;;1999.90;999.90;;;10.20;99.90;;;;;;5063313;28;20039;-82
2023/12/25 11:57:46;;;;;;;1999.90;999.90;;;10.80;99.90;;;;;;5062512;28;20063;-81
2023/12/25 12:00:17;;;;;;;1999.90;999.90;;;9.90;99.90;;;;;;5063616;28;20036;-84